sensor_id;sensor_type;location;lat;lon;timestamp;P1;durP1;ratioP1;P2;durP2;ratioP2
40459;SDS011;26164;51.138;16.952;2024-02-21T00:00:02;17.67;;;3.35;;
40459;SDS011;26164;51.138;16.952;2024-02-21T00:02:31;22.17;;;4.22;;
40459;SDS011;26164;51.138;16.952;2024-02-21T00:04:58;22.08;;;3.80;;
40459;SDS011;26164;51.138;16.952;2024-02-21T00:07:25;20.85;;;3.67;;
40459;SDS011;26164;51.138;16.952;2024-02-21T00:09:50;19.88;;;4.32;;
40459;SDS011;26164;51.138;16.952;2024-02-21T00:12:16;16.48;;;4.22;;
40459;SDS011;26164;51.138;16.952;2024-02-21T00:14:42;13.70;;;3.67;;
40459;SDS011;26164;51.138;16.952;2024-02-21T00:17:09;18.20;;;3.85;;
40459;SDS011;26164;51.138;16.952;2024-02-21T00:19:35;22.70;;;4.63;;
40459;SDS011;26164;51.138;16.952;2024-02-21T00:22:04;20.88;;;4.60;;
40459;SDS011;26164;51.138;16.952;2024-02-21T00:24:30;26.17;;;4.88;;
40459;SDS011;26164;51.138;16.952;2024-02-21T00:26:56;24.40;;;4.38;;
40459;SDS011;26164;51.138;16.952;2024-02-21T00:32:39;20.50;;;5.05;;
40459;SDS011;26164;51.138;16.952;2024-02-21T00:35:13;23.30;;;4.32;;
40459;SDS011;26164;51.138;16.952;2024-02-21T00:37:48;23.08;;;5.03;;
40459;SDS011;26164;51.138;16.952;2024-02-21T00:40:14;30.30;;;4.78;;
40459;SDS011;26164;51.138;16.952;2024-02-21T00:42:51;26.17;;;4.90;;
40459;SDS011;26164;51.138;16.952;2024-02-21T00:45:20;24.30;;;5.22;;
40459;SDS011;26164;51.138;16.952;2024-02-21T00:47:46;22.63;;;4.70;;
40459;SDS011;26164;51.138;16.952;2024-02-21T00:50:17;23.98;;;4.78;;
40459;SDS011;26164;51.138;16.952;2024-02-21T00:53:01;20.13;;;4.65;;
40459;SDS011;26164;51.138;16.952;2024-02-21T00:55:27;16.67;;;4.25;;
40459;SDS011;26164;51.138;16.952;2024-02-21T00:58:03;20.63;;;4.93;;
40459;SDS011;26164;51.138;16.952;2024-02-21T01:00:29;21.60;;;4.50;;
40459;SDS011;26164;51.138;16.952;2024-02-21T01:02:55;24.48;;;4.97;;
40459;SDS011;26164;51.138;16.952;2024-02-21T01:05:21;24.83;;;5.88;;
40459;SDS011;26164;51.138;16.952;2024-02-21T01:07:49;22.40;;;5.13;;
40459;SDS011;26164;51.138;16.952;2024-02-21T01:10:15;28.13;;;5.00;;
40459;SDS011;26164;51.138;16.952;2024-02-21T01:12:44;20.30;;;4.60;;
40459;SDS011;26164;51.138;16.952;2024-02-21T01:15:11;23.90;;;4.50;;
40459;SDS011;26164;51.138;16.952;2024-02-21T01:17:37;24.50;;;5.35;;
40459;SDS011;26164;51.138;16.952;2024-02-21T01:20:03;18.92;;;4.60;;
40459;SDS011;26164;51.138;16.952;2024-02-21T01:22:30;32.25;;;5.50;;
40459;SDS011;26164;51.138;16.952;2024-02-21T01:25:00;20.48;;;6.05;;
40459;SDS011;26164;51.138;16.952;2024-02-21T01:27:25;23.42;;;5.45;;
40459;SDS011;26164;51.138;16.952;2024-02-21T01:29:54;18.63;;;5.10;;
40459;SDS011;26164;51.138;16.952;2024-02-21T01:32:19;22.20;;;4.07;;
40459;SDS011;26164;51.138;16.952;2024-02-21T01:34:45;21.58;;;4.68;;
40459;SDS011;26164;51.138;16.952;2024-02-21T01:37:11;21.20;;;4.90;;
40459;SDS011;26164;51.138;16.952;2024-02-21T01:39:37;14.10;;;4.70;;
40459;SDS011;26164;51.138;16.952;2024-02-21T01:42:03;21.45;;;5.68;;
40459;SDS011;26164;51.138;16.952;2024-02-21T01:44:29;28.58;;;6.32;;
40459;SDS011;26164;51.138;16.952;2024-02-21T01:46:55;27.02;;;5.40;;
40459;SDS011;26164;51.138;16.952;2024-02-21T01:49:22;29.05;;;5.40;;
40459;SDS011;26164;51.138;16.952;2024-02-21T01:51:47;22.23;;;5.25;;
40459;SDS011;26164;51.138;16.952;2024-02-21T01:54:14;30.70;;;5.63;;
40459;SDS011;26164;51.138;16.952;2024-02-21T01:56:42;23.45;;;4.72;;
40459;SDS011;26164;51.138;16.952;2024-02-21T01:59:09;26.45;;;4.65;;
40459;SDS011;26164;51.138;16.952;2024-02-21T02:01:35;24.00;;;4.78;;
40459;SDS011;26164;51.138;16.952;2024-02-21T02:04:01;21.45;;;4.57;;
40459;SDS011;26164;51.138;16.952;2024-02-21T02:06:28;27.70;;;5.05;;
40459;SDS011;26164;51.138;16.952;2024-02-21T02:08:54;33.00;;;5.60;;
40459;SDS011;26164;51.138;16.952;2024-02-21T02:11:20;24.77;;;5.45;;
40459;SDS011;26164;51.138;16.952;2024-02-21T02:13:46;24.30;;;5.50;;
40459;SDS011;26164;51.138;16.952;2024-02-21T02:16:11;29.08;;;6.00;;
40459;SDS011;26164;51.138;16.952;2024-02-21T02:18:37;30.17;;;6.00;;
40459;SDS011;26164;51.138;16.952;2024-02-21T02:21:04;25.25;;;5.53;;
40459;SDS011;26164;51.138;16.952;2024-02-21T02:23:36;23.60;;;5.35;;
40459;SDS011;26164;51.138;16.952;2024-02-21T02:26:01;19.55;;;4.95;;
40459;SDS011;26164;51.138;16.952;2024-02-21T02:28:27;20.83;;;5.43;;
40459;SDS011;26164;51.138;16.952;2024-02-21T02:30:53;24.77;;;4.90;;
40459;SDS011;26164;51.138;16.952;2024-02-21T02:33:19;25.10;;;4.90;;
40459;SDS011;26164;51.138;16.952;2024-02-21T02:35:45;25.98;;;5.40;;
40459;SDS011;26164;51.138;16.952;2024-02-21T02:38:11;24.85;;;5.13;;
40459;SDS011;26164;51.138;16.952;2024-02-21T02:40:38;21.35;;;4.80;;
40459;SDS011;26164;51.138;16.952;2024-02-21T02:43:06;26.67;;;6.00;;
40459;SDS011;26164;51.138;16.952;2024-02-21T02:45:32;25.02;;;5.95;;
40459;SDS011;26164;51.138;16.952;2024-02-21T02:47:59;29.13;;;6.45;;
40459;SDS011;26164;51.138;16.952;2024-02-21T02:50:25;19.02;;;5.50;;
40459;SDS011;26164;51.138;16.952;2024-02-21T02:52:53;22.40;;;5.82;;
40459;SDS011;26164;51.138;16.952;2024-02-21T02:55:20;22.92;;;5.90;;
40459;SDS011;26164;51.138;16.952;2024-02-21T02:57:46;17.80;;;5.20;;
40459;SDS011;26164;51.138;16.952;2024-02-21T03:00:12;21.00;;;6.40;;
40459;SDS011;26164;51.138;16.952;2024-02-21T03:02:40;23.85;;;6.05;;
40459;SDS011;26164;51.138;16.952;2024-02-21T03:05:11;30.83;;;7.10;;
40459;SDS011;26164;51.138;16.952;2024-02-21T03:07:45;24.70;;;6.25;;
40459;SDS011;26164;51.138;16.952;2024-02-21T03:10:11;23.73;;;6.50;;
40459;SDS011;26164;51.138;16.952;2024-02-21T03:12:38;25.55;;;6.25;;
40459;SDS011;26164;51.138;16.952;2024-02-21T03:15:05;26.40;;;6.10;;
40459;SDS011;26164;51.138;16.952;2024-02-21T03:17:31;21.13;;;6.18;;
40459;SDS011;26164;51.138;16.952;2024-02-21T03:20:01;22.20;;;5.93;;
40459;SDS011;26164;51.138;16.952;2024-02-21T03:22:31;18.13;;;5.32;;
40459;SDS011;26164;51.138;16.952;2024-02-21T03:24:57;21.73;;;6.22;;
40459;SDS011;26164;51.138;16.952;2024-02-21T03:27:23;21.75;;;6.35;;
40459;SDS011;26164;51.138;16.952;2024-02-21T03:29:49;22.73;;;5.80;;
40459;SDS011;26164;51.138;16.952;2024-02-21T03:32:15;19.55;;;6.07;;
40459;SDS011;26164;51.138;16.952;2024-02-21T03:34:40;17.95;;;5.43;;
40459;SDS011;26164;51.138;16.952;2024-02-21T03:37:06;22.85;;;6.25;;
40459;SDS011;26164;51.138;16.952;2024-02-21T03:39:34;22.73;;;6.45;;
40459;SDS011;26164;51.138;16.952;2024-02-21T03:42:02;26.38;;;7.10;;
40459;SDS011;26164;51.138;16.952;2024-02-21T03:44:30;16.63;;;6.50;;
40459;SDS011;26164;51.138;16.952;2024-02-21T03:46:57;17.90;;;5.63;;
40459;SDS011;26164;51.138;16.952;2024-02-21T03:49:23;22.25;;;5.15;;
40459;SDS011;26164;51.138;16.952;2024-02-21T03:51:49;20.33;;;5.85;;
40459;SDS011;26164;51.138;16.952;2024-02-21T03:54:15;20.77;;;5.88;;
40459;SDS011;26164;51.138;16.952;2024-02-21T03:56:41;18.27;;;6.50;;
40459;SDS011;26164;51.138;16.952;2024-02-21T03:59:07;22.98;;;5.35;;
40459;SDS011;26164;51.138;16.952;2024-02-21T04:01:36;19.95;;;5.65;;
40459;SDS011;26164;51.138;16.952;2024-02-21T04:04:02;24.98;;;5.88;;
40459;SDS011;26164;51.138;16.952;2024-02-21T04:06:28;23.42;;;5.25;;
40459;SDS011;26164;51.138;16.952;2024-02-21T04:08:54;19.33;;;5.13;;
40459;SDS011;26164;51.138;16.952;2024-02-21T04:11:20;15.55;;;5.47;;
40459;SDS011;26164;51.138;16.952;2024-02-21T04:13:47;20.92;;;5.93;;
40459;SDS011;26164;51.138;16.952;2024-02-21T04:16:15;23.20;;;6.03;;
40459;SDS011;26164;51.138;16.952;2024-02-21T04:18:42;17.13;;;5.43;;
40459;SDS011;26164;51.138;16.952;2024-02-21T04:21:08;21.50;;;6.57;;
40459;SDS011;26164;51.138;16.952;2024-02-21T04:23:35;22.20;;;6.68;;
40459;SDS011;26164;51.138;16.952;2024-02-21T04:26:00;22.25;;;5.95;;
40459;SDS011;26164;51.138;16.952;2024-02-21T04:28:26;25.33;;;6.45;;
40459;SDS011;26164;51.138;16.952;2024-02-21T04:30:52;17.88;;;5.05;;
40459;SDS011;26164;51.138;16.952;2024-02-21T04:33:19;22.10;;;5.47;;
40459;SDS011;26164;51.138;16.952;2024-02-21T04:35:44;16.90;;;5.35;;
40459;SDS011;26164;51.138;16.952;2024-02-21T04:38:10;21.58;;;6.55;;
40459;SDS011;26164;51.138;16.952;2024-02-21T04:40:36;16.98;;;5.90;;
40459;SDS011;26164;51.138;16.952;2024-02-21T04:43:02;23.08;;;6.18;;
40459;SDS011;26164;51.138;16.952;2024-02-21T04:45:30;19.92;;;6.00;;
40459;SDS011;26164;51.138;16.952;2024-02-21T04:48:05;23.02;;;6.85;;
40459;SDS011;26164;51.138;16.952;2024-02-21T04:50:30;14.27;;;6.13;;
40459;SDS011;26164;51.138;16.952;2024-02-21T04:52:59;20.40;;;6.55;;
40459;SDS011;26164;51.138;16.952;2024-02-21T04:55:26;16.92;;;6.43;;
40459;SDS011;26164;51.138;16.952;2024-02-21T04:57:52;18.42;;;6.22;;
40459;SDS011;26164;51.138;16.952;2024-02-21T05:00:17;19.02;;;6.57;;
40459;SDS011;26164;51.138;16.952;2024-02-21T05:02:45;22.23;;;6.78;;
40459;SDS011;26164;51.138;16.952;2024-02-21T05:05:12;23.45;;;7.35;;
40459;SDS011;26164;51.138;16.952;2024-02-21T05:07:40;20.83;;;7.65;;
40459;SDS011;26164;51.138;16.952;2024-02-21T05:10:06;22.38;;;7.15;;
40459;SDS011;26164;51.138;16.952;2024-02-21T05:12:33;24.88;;;7.25;;
40459;SDS011;26164;51.138;16.952;2024-02-21T05:14:58;24.83;;;6.85;;
40459;SDS011;26164;51.138;16.952;2024-02-21T05:17:24;21.23;;;7.05;;
40459;SDS011;26164;51.138;16.952;2024-02-21T05:19:51;19.25;;;6.93;;
40459;SDS011;26164;51.138;16.952;2024-02-21T05:22:17;23.38;;;7.07;;
40459;SDS011;26164;51.138;16.952;2024-02-21T05:24:42;22.20;;;6.90;;
40459;SDS011;26164;51.138;16.952;2024-02-21T05:27:09;18.17;;;6.15;;
40459;SDS011;26164;51.138;16.952;2024-02-21T05:29:35;15.80;;;5.95;;
40459;SDS011;26164;51.138;16.952;2024-02-21T05:32:01;14.68;;;5.85;;
40459;SDS011;26164;51.138;16.952;2024-02-21T05:34:28;17.77;;;5.90;;
40459;SDS011;26164;51.138;16.952;2024-02-21T05:36:54;18.90;;;6.00;;
40459;SDS011;26164;51.138;16.952;2024-02-21T05:39:20;19.50;;;6.00;;
40459;SDS011;26164;51.138;16.952;2024-02-21T05:41:56;15.13;;;5.90;;
40459;SDS011;26164;51.138;16.952;2024-02-21T05:44:22;16.85;;;5.30;;
40459;SDS011;26164;51.138;16.952;2024-02-21T05:46:56;20.50;;;6.13;;
40459;SDS011;26164;51.138;16.952;2024-02-21T05:49:24;16.42;;;5.78;;
40459;SDS011;26164;51.138;16.952;2024-02-21T05:51:51;15.32;;;6.28;;
40459;SDS011;26164;51.138;16.952;2024-02-21T05:54:17;14.82;;;5.28;;
40459;SDS011;26164;51.138;16.952;2024-02-21T05:56:44;17.30;;;6.28;;
40459;SDS011;26164;51.138;16.952;2024-02-21T05:59:13;20.08;;;5.85;;
40459;SDS011;26164;51.138;16.952;2024-02-21T06:01:41;18.40;;;6.43;;
40459;SDS011;26164;51.138;16.952;2024-02-21T06:04:11;23.98;;;7.13;;
40459;SDS011;26164;51.138;16.952;2024-02-21T06:06:38;17.02;;;6.65;;
40459;SDS011;26164;51.138;16.952;2024-02-21T06:09:04;16.30;;;6.07;;
40459;SDS011;26164;51.138;16.952;2024-02-21T06:11:32;23.55;;;7.50;;
40459;SDS011;26164;51.138;16.952;2024-02-21T06:13:58;19.20;;;6.70;;
40459;SDS011;26164;51.138;16.952;2024-02-21T06:19:17;14.80;;;6.22;;
40459;SDS011;26164;51.138;16.952;2024-02-21T06:25:08;19.15;;;6.40;;
40459;SDS011;26164;51.138;16.952;2024-02-21T06:54:44;13.35;;;5.63;;
40459;SDS011;26164;51.138;16.952;2024-02-21T06:57:25;18.27;;;6.63;;
40459;SDS011;26164;51.138;16.952;2024-02-21T06:59:52;18.15;;;6.03;;
40459;SDS011;26164;51.138;16.952;2024-02-21T07:02:24;16.05;;;5.82;;
40459;SDS011;26164;51.138;16.952;2024-02-21T07:05:07;17.33;;;5.43;;
40459;SDS011;26164;51.138;16.952;2024-02-21T07:13:00;17.67;;;5.40;;
40459;SDS011;26164;51.138;16.952;2024-02-21T07:19:52;17.17;;;6.18;;
40459;SDS011;26164;51.138;16.952;2024-02-21T07:22:25;17.60;;;5.78;;
40459;SDS011;26164;51.138;16.952;2024-02-21T07:24:59;19.85;;;7.30;;
40459;SDS011;26164;51.138;16.952;2024-02-21T07:27:24;18.67;;;6.60;;
40459;SDS011;26164;51.138;16.952;2024-02-21T07:30:16;18.83;;;6.18;;
40459;SDS011;26164;51.138;16.952;2024-02-21T07:32:45;22.33;;;6.68;;
40459;SDS011;26164;51.138;16.952;2024-02-21T07:35:22;20.30;;;6.45;;
40459;SDS011;26164;51.138;16.952;2024-02-21T07:37:48;22.92;;;6.85;;
40459;SDS011;26164;51.138;16.952;2024-02-21T07:40:15;21.58;;;7.25;;
40459;SDS011;26164;51.138;16.952;2024-02-21T07:42:42;19.00;;;7.18;;
40459;SDS011;26164;51.138;16.952;2024-02-21T07:45:09;20.80;;;6.72;;
40459;SDS011;26164;51.138;16.952;2024-02-21T07:50:23;21.90;;;7.15;;
40459;SDS011;26164;51.138;16.952;2024-02-21T07:52:49;22.98;;;7.43;;
40459;SDS011;26164;51.138;16.952;2024-02-21T07:55:27;18.73;;;7.28;;
40459;SDS011;26164;51.138;16.952;2024-02-21T07:57:58;19.65;;;7.75;;
40459;SDS011;26164;51.138;16.952;2024-02-21T08:00:24;21.52;;;6.47;;
40459;SDS011;26164;51.138;16.952;2024-02-21T08:02:50;18.10;;;6.45;;
40459;SDS011;26164;51.138;16.952;2024-02-21T08:05:16;22.77;;;6.90;;
40459;SDS011;26164;51.138;16.952;2024-02-21T08:07:42;18.75;;;6.53;;
40459;SDS011;26164;51.138;16.952;2024-02-21T08:10:08;22.73;;;6.40;;
40459;SDS011;26164;51.138;16.952;2024-02-21T08:12:34;16.90;;;6.18;;
40459;SDS011;26164;51.138;16.952;2024-02-21T08:15:01;29.08;;;7.40;;
40459;SDS011;26164;51.138;16.952;2024-02-21T08:17:29;27.20;;;7.05;;
40459;SDS011;26164;51.138;16.952;2024-02-21T08:19:55;24.90;;;7.10;;
40459;SDS011;26164;51.138;16.952;2024-02-21T08:22:21;16.75;;;6.93;;
40459;SDS011;26164;51.138;16.952;2024-02-21T08:24:47;28.45;;;6.82;;
40459;SDS011;26164;51.138;16.952;2024-02-21T08:27:13;23.98;;;6.70;;
40459;SDS011;26164;51.138;16.952;2024-02-21T08:29:42;18.85;;;7.05;;
40459;SDS011;26164;51.138;16.952;2024-02-21T08:32:09;22.52;;;6.55;;
40459;SDS011;26164;51.138;16.952;2024-02-21T08:34:37;22.63;;;6.20;;
40459;SDS011;26164;51.138;16.952;2024-02-21T08:37:03;17.23;;;6.15;;
40459;SDS011;26164;51.138;16.952;2024-02-21T08:39:29;19.98;;;5.97;;
40459;SDS011;26164;51.138;16.952;2024-02-21T08:41:55;21.83;;;6.82;;
40459;SDS011;26164;51.138;16.952;2024-02-21T08:44:27;21.48;;;6.40;;
40459;SDS011;26164;51.138;16.952;2024-02-21T08:46:58;22.98;;;6.88;;
40459;SDS011;26164;51.138;16.952;2024-02-21T08:49:25;21.48;;;6.80;;
40459;SDS011;26164;51.138;16.952;2024-02-21T08:51:54;21.58;;;6.70;;
40459;SDS011;26164;51.138;16.952;2024-02-21T08:54:20;21.00;;;6.50;;
40459;SDS011;26164;51.138;16.952;2024-02-21T08:56:46;21.05;;;6.93;;
40459;SDS011;26164;51.138;16.952;2024-02-21T08:59:12;26.40;;;8.05;;
40459;SDS011;26164;51.138;16.952;2024-02-21T09:01:39;25.55;;;6.82;;
40459;SDS011;26164;51.138;16.952;2024-02-21T09:04:06;26.65;;;7.70;;
40459;SDS011;26164;51.138;16.952;2024-02-21T09:06:35;30.08;;;6.95;;
40459;SDS011;26164;51.138;16.952;2024-02-21T09:09:08;20.23;;;7.03;;
40459;SDS011;26164;51.138;16.952;2024-02-21T09:14:10;23.45;;;6.60;;
40459;SDS011;26164;51.138;16.952;2024-02-21T09:16:36;18.83;;;6.45;;
40459;SDS011;26164;51.138;16.952;2024-02-21T09:19:03;19.73;;;6.65;;
40459;SDS011;26164;51.138;16.952;2024-02-21T09:21:29;22.67;;;6.88;;
40459;SDS011;26164;51.138;16.952;2024-02-21T09:24:05;16.20;;;6.53;;
40459;SDS011;26164;51.138;16.952;2024-02-21T09:26:31;19.10;;;6.20;;
40459;SDS011;26164;51.138;16.952;2024-02-21T09:29:00;24.45;;;6.38;;
40459;SDS011;26164;51.138;16.952;2024-02-21T09:31:26;20.00;;;6.40;;
40459;SDS011;26164;51.138;16.952;2024-02-21T09:33:54;19.27;;;6.10;;
40459;SDS011;26164;51.138;16.952;2024-02-21T09:36:22;19.42;;;5.65;;
40459;SDS011;26164;51.138;16.952;2024-02-21T09:38:49;24.02;;;6.47;;
40459;SDS011;26164;51.138;16.952;2024-02-21T09:41:15;18.77;;;6.60;;
40459;SDS011;26164;51.138;16.952;2024-02-21T09:43:45;17.20;;;5.78;;
40459;SDS011;26164;51.138;16.952;2024-02-21T09:46:21;21.38;;;6.15;;
40459;SDS011;26164;51.138;16.952;2024-02-21T09:52:09;23.35;;;6.22;;
40459;SDS011;26164;51.138;16.952;2024-02-21T09:54:39;15.98;;;5.95;;
40459;SDS011;26164;51.138;16.952;2024-02-21T09:57:27;16.13;;;6.10;;
40459;SDS011;26164;51.138;16.952;2024-02-21T09:59:56;20.98;;;6.03;;
40459;SDS011;26164;51.138;16.952;2024-02-21T10:02:22;19.30;;;6.72;;
40459;SDS011;26164;51.138;16.952;2024-02-21T10:05:03;21.65;;;6.45;;
40459;SDS011;26164;51.138;16.952;2024-02-21T10:10:53;23.70;;;6.18;;
40459;SDS011;26164;51.138;16.952;2024-02-21T10:13:28;16.15;;;5.97;;
40459;SDS011;26164;51.138;16.952;2024-02-21T10:16:05;19.70;;;6.43;;
40459;SDS011;26164;51.138;16.952;2024-02-21T10:18:36;23.40;;;6.43;;
40459;SDS011;26164;51.138;16.952;2024-02-21T10:21:03;19.45;;;6.50;;
40459;SDS011;26164;51.138;16.952;2024-02-21T10:23:46;17.83;;;6.68;;
40459;SDS011;26164;51.138;16.952;2024-02-21T10:26:15;19.65;;;6.40;;
40459;SDS011;26164;51.138;16.952;2024-02-21T10:28:49;22.33;;;6.88;;
40459;SDS011;26164;51.138;16.952;2024-02-21T10:31:28;23.95;;;6.68;;
40459;SDS011;26164;51.138;16.952;2024-02-21T10:33:56;24.75;;;6.70;;
40459;SDS011;26164;51.138;16.952;2024-02-21T10:36:30;18.33;;;6.85;;
40459;SDS011;26164;51.138;16.952;2024-02-21T10:39:12;23.65;;;7.07;;
40459;SDS011;26164;51.138;16.952;2024-02-21T10:44:59;19.52;;;6.82;;
40459;SDS011;26164;51.138;16.952;2024-02-21T10:47:33;17.60;;;6.47;;
40459;SDS011;26164;51.138;16.952;2024-02-21T10:50:09;18.15;;;6.60;;
40459;SDS011;26164;51.138;16.952;2024-02-21T10:52:50;15.38;;;5.75;;
40459;SDS011;26164;51.138;16.952;2024-02-21T10:55:57;16.95;;;7.00;;
40459;SDS011;26164;51.138;16.952;2024-02-21T10:58:32;14.07;;;6.30;;
40459;SDS011;26164;51.138;16.952;2024-02-21T11:00:59;21.05;;;6.47;;
40459;SDS011;26164;51.138;16.952;2024-02-21T11:03:25;15.43;;;6.20;;
40459;SDS011;26164;51.138;16.952;2024-02-21T11:05:51;18.83;;;6.68;;
40459;SDS011;26164;51.138;16.952;2024-02-21T11:08:19;18.70;;;6.93;;
40459;SDS011;26164;51.138;16.952;2024-02-21T11:10:45;14.77;;;5.88;;
40459;SDS011;26164;51.138;16.952;2024-02-21T11:13:11;18.95;;;6.70;;
40459;SDS011;26164;51.138;16.952;2024-02-21T11:15:42;15.73;;;6.18;;
40459;SDS011;26164;51.138;16.952;2024-02-21T11:18:22;18.65;;;6.80;;
40459;SDS011;26164;51.138;16.952;2024-02-21T11:20:49;16.52;;;6.00;;
40459;SDS011;26164;51.138;16.952;2024-02-21T11:23:24;16.40;;;6.32;;
40459;SDS011;26164;51.138;16.952;2024-02-21T11:25:51;18.40;;;6.15;;
40459;SDS011;26164;51.138;16.952;2024-02-21T11:28:24;17.35;;;6.28;;
40459;SDS011;26164;51.138;16.952;2024-02-21T11:31:08;15.43;;;6.25;;
40459;SDS011;26164;51.138;16.952;2024-02-21T11:33:40;13.20;;;5.78;;
40459;SDS011;26164;51.138;16.952;2024-02-21T11:36:34;14.85;;;5.93;;
40459;SDS011;26164;51.138;16.952;2024-02-21T11:39:09;19.90;;;6.60;;
40459;SDS011;26164;51.138;16.952;2024-02-21T11:42:03;13.60;;;5.97;;
40459;SDS011;26164;51.138;16.952;2024-02-21T11:44:37;13.95;;;5.53;;
40459;SDS011;26164;51.138;16.952;2024-02-21T11:47:35;14.98;;;5.85;;
40459;SDS011;26164;51.138;16.952;2024-02-21T11:50:09;10.38;;;5.53;;
40459;SDS011;26164;51.138;16.952;2024-02-21T11:53:00;19.20;;;6.88;;
40459;SDS011;26164;51.138;16.952;2024-02-21T11:56:13;12.80;;;5.35;;
40459;SDS011;26164;51.138;16.952;2024-02-21T11:58:41;14.35;;;5.68;;
40459;SDS011;26164;51.138;16.952;2024-02-21T12:01:11;15.73;;;5.72;;
40459;SDS011;26164;51.138;16.952;2024-02-21T12:03:39;16.77;;;5.88;;
40459;SDS011;26164;51.138;16.952;2024-02-21T12:06:07;13.13;;;5.38;;
40459;SDS011;26164;51.138;16.952;2024-02-21T12:08:43;14.75;;;5.28;;
40459;SDS011;26164;51.138;16.952;2024-02-21T12:11:16;9.32;;;4.80;;
40459;SDS011;26164;51.138;16.952;2024-02-21T12:14:00;16.13;;;5.88;;
40459;SDS011;26164;51.138;16.952;2024-02-21T12:16:31;14.75;;;5.32;;
40459;SDS011;26164;51.138;16.952;2024-02-21T12:18:58;15.80;;;4.55;;
40459;SDS011;26164;51.138;16.952;2024-02-21T12:21:29;10.48;;;4.40;;
40459;SDS011;26164;51.138;16.952;2024-02-21T12:24:10;12.38;;;4.68;;
40459;SDS011;26164;51.138;16.952;2024-02-21T12:29:56;14.45;;;4.63;;
40459;SDS011;26164;51.138;16.952;2024-02-21T12:32:23;12.55;;;4.35;;
40459;SDS011;26164;51.138;16.952;2024-02-21T12:34:50;14.70;;;4.97;;
40459;SDS011;26164;51.138;16.952;2024-02-21T12:37:18;14.60;;;4.70;;
40459;SDS011;26164;51.138;16.952;2024-02-21T12:39:47;15.70;;;4.97;;
40459;SDS011;26164;51.138;16.952;2024-02-21T12:42:17;13.02;;;4.53;;
40459;SDS011;26164;51.138;16.952;2024-02-21T12:44:47;16.08;;;5.07;;
40459;SDS011;26164;51.138;16.952;2024-02-21T12:47:13;14.40;;;4.57;;
40459;SDS011;26164;51.138;16.952;2024-02-21T12:49:39;17.00;;;4.43;;
40459;SDS011;26164;51.138;16.952;2024-02-21T12:52:07;14.07;;;4.05;;
40459;SDS011;26164;51.138;16.952;2024-02-21T12:54:38;17.30;;;4.65;;
40459;SDS011;26164;51.138;16.952;2024-02-21T12:57:08;10.55;;;4.25;;
40459;SDS011;26164;51.138;16.952;2024-02-21T12:59:36;13.43;;;4.05;;
40459;SDS011;26164;51.138;16.952;2024-02-21T13:02:15;14.88;;;4.60;;
40459;SDS011;26164;51.138;16.952;2024-02-21T13:07:46;10.52;;;4.15;;
40459;SDS011;26164;51.138;16.952;2024-02-21T13:10:14;11.68;;;4.05;;
40459;SDS011;26164;51.138;16.952;2024-02-21T13:12:42;15.80;;;5.63;;
40459;SDS011;26164;51.138;16.952;2024-02-21T13:15:30;14.30;;;3.92;;
40459;SDS011;26164;51.138;16.952;2024-02-21T13:18:26;13.43;;;4.50;;
40459;SDS011;26164;51.138;16.952;2024-02-21T13:21:17;10.55;;;4.45;;
40459;SDS011;26164;51.138;16.952;2024-02-21T13:24:09;10.57;;;3.85;;
40459;SDS011;26164;51.138;16.952;2024-02-21T13:27:05;12.52;;;4.75;;
40459;SDS011;26164;51.138;16.952;2024-02-21T13:30:25;10.43;;;4.00;;
40459;SDS011;26164;51.138;16.952;2024-02-21T13:32:51;11.38;;;4.20;;
40459;SDS011;26164;51.138;16.952;2024-02-21T13:35:17;12.98;;;4.18;;
40459;SDS011;26164;51.138;16.952;2024-02-21T13:37:50;14.77;;;5.07;;
40459;SDS011;26164;51.138;16.952;2024-02-21T13:43:11;17.17;;;4.55;;
40459;SDS011;26164;51.138;16.952;2024-02-21T13:45:39;9.70;;;4.15;;
40459;SDS011;26164;51.138;16.952;2024-02-21T13:48:09;14.15;;;4.50;;
40459;SDS011;26164;51.138;16.952;2024-02-21T13:50:39;10.07;;;4.47;;
40459;SDS011;26164;51.138;16.952;2024-02-21T13:53:10;17.85;;;4.55;;
40459;SDS011;26164;51.138;16.952;2024-02-21T13:55:49;12.98;;;4.57;;
40459;SDS011;26164;51.138;16.952;2024-02-21T13:58:37;11.18;;;4.60;;
40459;SDS011;26164;51.138;16.952;2024-02-21T14:01:26;11.95;;;4.65;;
40459;SDS011;26164;51.138;16.952;2024-02-21T14:04:10;14.85;;;4.80;;
40459;SDS011;26164;51.138;16.952;2024-02-21T14:06:44;13.80;;;4.70;;
40459;SDS011;26164;51.138;16.952;2024-02-21T14:11:38;12.10;;;4.22;;
40459;SDS011;26164;51.138;16.952;2024-02-21T14:14:06;12.02;;;5.03;;
40459;SDS011;26164;51.138;16.952;2024-02-21T14:16:35;13.25;;;4.28;;
40459;SDS011;26164;51.138;16.952;2024-02-21T14:19:19;14.98;;;4.45;;
40459;SDS011;26164;51.138;16.952;2024-02-21T14:22:21;14.18;;;4.70;;
40459;SDS011;26164;51.138;16.952;2024-02-21T14:28:18;13.63;;;5.05;;
40459;SDS011;26164;51.138;16.952;2024-02-21T14:31:44;15.93;;;5.15;;
40459;SDS011;26164;51.138;16.952;2024-02-21T14:34:11;12.10;;;4.65;;
40459;SDS011;26164;51.138;16.952;2024-02-21T14:36:55;15.30;;;4.78;;
40459;SDS011;26164;51.138;16.952;2024-02-21T14:39:48;17.83;;;5.38;;
40459;SDS011;26164;51.138;16.952;2024-02-21T14:45:17;17.52;;;6.78;;
40459;SDS011;26164;51.138;16.952;2024-02-21T14:47:45;17.38;;;5.82;;
40459;SDS011;26164;51.138;16.952;2024-02-21T14:50:12;18.05;;;6.07;;
40459;SDS011;26164;51.138;16.952;2024-02-21T14:52:39;13.90;;;5.78;;
40459;SDS011;26164;51.138;16.952;2024-02-21T14:55:29;15.20;;;6.15;;
40459;SDS011;26164;51.138;16.952;2024-02-21T14:58:13;16.38;;;6.15;;
40459;SDS011;26164;51.138;16.952;2024-02-21T15:19:22;12.07;;;5.03;;
40459;SDS011;26164;51.138;16.952;2024-02-21T15:21:50;13.48;;;5.32;;
40459;SDS011;26164;51.138;16.952;2024-02-21T15:24:17;16.63;;;5.32;;
40459;SDS011;26164;51.138;16.952;2024-02-21T15:27:00;12.70;;;4.47;;
40459;SDS011;26164;51.138;16.952;2024-02-21T15:30:07;15.68;;;5.25;;
40459;SDS011;26164;51.138;16.952;2024-02-21T16:22:29;17.20;;;6.97;;
40459;SDS011;26164;51.138;16.952;2024-02-21T16:25:08;18.13;;;7.50;;
40459;SDS011;26164;51.138;16.952;2024-02-21T16:29:16;17.08;;;6.97;;
40459;SDS011;26164;51.138;16.952;2024-02-21T16:37:35;21.15;;;8.57;;
40459;SDS011;26164;51.138;16.952;2024-02-21T16:40:07;18.77;;;9.35;;
40459;SDS011;26164;51.138;16.952;2024-02-21T16:42:34;21.95;;;9.60;;
40459;SDS011;26164;51.138;16.952;2024-02-21T16:45:21;22.73;;;10.30;;
40459;SDS011;26164;51.138;16.952;2024-02-21T16:50:21;17.48;;;9.20;;
40459;SDS011;26164;51.138;16.952;2024-02-21T16:52:53;18.52;;;9.07;;
40459;SDS011;26164;51.138;16.952;2024-02-21T16:55:19;23.90;;;10.13;;
40459;SDS011;26164;51.138;16.952;2024-02-21T16:57:48;26.60;;;9.57;;
40459;SDS011;26164;51.138;16.952;2024-02-21T17:00:14;25.83;;;11.50;;
40459;SDS011;26164;51.138;16.952;2024-02-21T17:02:42;24.02;;;10.05;;
40459;SDS011;26164;51.138;16.952;2024-02-21T17:05:09;23.88;;;11.07;;
40459;SDS011;26164;51.138;16.952;2024-02-21T17:07:40;23.48;;;11.30;;
40459;SDS011;26164;51.138;16.952;2024-02-21T17:10:08;21.90;;;10.88;;
40459;SDS011;26164;51.138;16.952;2024-02-21T17:12:35;23.08;;;10.65;;
40459;SDS011;26164;51.138;16.952;2024-02-21T17:15:04;33.63;;;11.55;;
40459;SDS011;26164;51.138;16.952;2024-02-21T17:17:34;24.52;;;11.60;;